Terminal Aerodrome Forecast
Issued by NWS

Home | Current Version | Previous Version | Text Only | Print | Product List | Glossary On
Versions: 1 2 3 4 5 6 7 8 9 10 11 12 13 14 15 16 17 18 19
528
FTUS44 KTSA 200539
TAFFYV
TAF
KFYV 200539Z 2006/2106 16009KT P6SM BKN040
      TEMPO 2012/2016 3SM TSRA BR BKN020CB
     FM201600 18008KT P6SM OVC035
      TEMPO 2016/2020 5SM -RA BR OVC020
     FM210100 20003KT P6SM BKN150=

USA.gov is the U.S. government's official web portal to all federal, state and local government web resources and services.